Time;durP1;ratioP1;P1;durP2;ratioP2;P2;SDS_P1;SDS_P2;PMS_P1;PMS_P2;Temp;Humidity;BMP_temperature;BMP_pressure;BME280_temperature;BME280_humidity;BME280_pressure;Samples;Min_cycle;Max_cycle;Signal;HPM_P1;HPM_P2
2022/07/11 00:02:25;;;;;;;;;;;;;;;23.87;30.21;99333.00;4376281;32;33416;-86
2022/07/11 00:04:52;;;;;;;;;;;;;;;23.40;30.81;99338.25;4376185;32;33136;-86
2022/07/11 00:07:20;;;;;;;;;;;;;;;23.19;31.33;99338.13;4376512;32;34579;-87
2022/07/11 00:09:47;;;;;;;;;;;;;;;22.95;31.49;99341.62;4375953;32;35154;-86
2022/07/11 00:12:15;;;;;;;;;;;;;;;22.96;31.64;99340.72;4376089;32;34172;-86
2022/07/11 00:14:42;;;;;;;;;;;;;;;23.15;31.29;99346.22;4350495;32;33045;-87
2022/07/11 00:17:09;;;;;;;;;;;;;;;23.38;30.95;99348.91;4362533;32;33686;-87
2022/07/11 00:19:37;;;;;;;;;;;;;;;23.60;30.62;99343.69;4376251;32;35366;-87
2022/07/11 00:22:04;;;;;;;;;;;;;;;23.54;30.83;99338.59;4376203;32;33858;-87
2022/07/11 00:24:32;;;;;;;;;;;;;;;23.85;30.49;99340.13;4362053;32;32286;-87
2022/07/11 00:26:59;;;;;;;;;;;;;;;22.53;32.40;99355.34;4362389;32;34893;-88
2022/07/11 00:29:27;;;;;;;;;;;;;;;23.17;31.62;99347.88;4376239;32;34522;-87
2022/07/11 00:31:54;;;;;;;;;;;;;;;23.69;31.12;99353.09;4339800;32;34056;-89
2022/07/11 00:34:21;;;;;;;;;;;;;;;23.78;30.70;99350.94;4347644;32;33488;-87
2022/07/11 00:36:48;;;;;;;;;;;;;;;24.00;30.25;99353.63;4360970;32;34958;-87
2022/07/11 00:39:16;;;;;;;;;;;;;;;23.14;31.45;99336.53;4374337;32;34511;-87
2022/07/11 00:41:43;;;;;;;;;;;;;;;23.54;31.01;99343.91;4375768;32;34080;-87
2022/07/11 00:44:11;;;;;;;;;;;;;;;23.38;31.14;99350.69;4362390;32;34230;-87
2022/07/11 00:46:39;;;;;;;;;;;;;;;22.47;32.81;99343.22;4362193;32;34896;-88
2022/07/11 00:49:06;;;;;;;;;;;;;;;22.22;33.58;99332.56;4361944;32;34632;-88
2022/07/11 00:51:33;;;;;;;;;;;;;;;21.99;33.57;99337.69;4362833;32;34356;-87
2022/07/11 00:54:01;;;;;;;;;;;;;;;21.25;35.53;99337.19;4350207;32;33348;-87
2022/07/11 00:56:31;;;;;;;;;;;;;;;21.34;35.33;99333.47;4362576;32;34882;-87
2022/07/11 00:58:59;;;;;;;;;;;;;;;21.52;35.06;99325.03;4362180;32;34390;-87
2022/07/11 01:01:26;;;;;;;;;;;;;;;21.19;35.77;99332.09;4375682;32;33850;-88
2022/07/11 01:03:54;;;;;;;;;;;;;;;21.50;35.42;99337.37;4375885;32;33439;-86
2022/07/11 01:06:21;;;;;;;;;;;;;;;20.80;36.50;99329.63;4375181;32;33848;-86
2022/07/11 01:08:48;;;;;;;;;;;;;;;19.61;39.02;99338.50;4375662;32;33943;-86
2022/07/11 01:11:16;;;;;;;;;;;;;;;20.61;37.15;99328.38;4374570;32;34324;-87
2022/07/11 01:13:44;;;;;;;;;;;;;;;20.85;36.49;99333.00;4362216;32;33420;-87
2022/07/11 01:16:13;;;;;;;;;;;;;;;20.92;36.54;99324.94;4361989;32;32589;-87
2022/07/11 01:18:45;;;;;;;;;;;;;;;20.31;37.81;99328.19;4362184;32;33970;-87
2022/07/11 01:21:22;;;;;;;;;;;;;;;20.74;37.04;99324.50;4346926;32;33204;-85
2022/07/11 01:23:51;;;;;;;;;;;;;;;20.18;38.16;99329.38;4373597;32;34480;-87
2022/07/11 01:26:19;;;;;;;;;;;;;;;20.40;37.83;99327.09;4375318;32;34148;-87
2022/07/11 01:28:46;;;;;;;;;;;;;;;20.27;38.07;99328.31;4361470;32;34362;-86
2022/07/11 01:31:13;;;;;;;;;;;;;;;20.01;38.73;99328.91;4361825;32;33742;-87
2022/07/11 01:33:41;;;;;;;;;;;;;;;20.43;37.73;99329.66;4349382;32;32517;-87
2022/07/11 01:36:09;;;;;;;;;;;;;;;20.60;37.50;99322.22;4361503;32;34555;-87
2022/07/11 01:38:36;;;;;;;;;;;;;;;20.63;37.39;99326.56;4361897;32;33106;-86
2022/07/11 01:41:03;;;;;;;;;;;;;;;20.95;36.74;99316.91;4361704;32;33689;-86
2022/07/11 01:43:31;;;;;;;;;;;;;;;20.84;36.90;99326.00;4375357;32;33140;-87
2022/07/11 01:45:58;;;;;;;;;;;;;;;19.91;39.08;99336.16;4374244;32;33798;-85
2022/07/11 01:48:26;;;;;;;;;;;;;;;20.82;37.17;99327.78;4361786;32;35399;-85
2022/07/11 01:50:53;;;;;;;;;;;;;;;21.05;36.61;99318.41;4360796;32;34376;-86
2022/07/11 01:53:20;;;;;;;;;;;;;;;21.09;36.83;99320.06;4361631;32;34131;-87
2022/07/11 01:55:48;;;;;;;;;;;;;;;21.62;35.72;99323.81;4361329;32;33802;-87
2022/07/11 01:58:35;;;;;;;;;;;;;;;21.78;35.54;99331.28;4374922;32;34619;-86
2022/07/11 02:01:02;;;;;;;;;;;;;;;20.72;37.29;99333.34;4375017;32;35038;-87
2022/07/11 02:03:30;;;;;;;;;;;;;;;20.92;37.22;99333.69;4374951;32;33426;-87
2022/07/11 02:05:58;;;;;;;;;;;;;;;21.00;36.93;99323.81;4361273;32;34184;-87
2022/07/11 02:08:25;;;;;;;;;;;;;;;21.67;35.82;99323.72;4374783;32;34183;-86
2022/07/11 02:10:52;;;;;;;;;;;;;;;21.94;35.32;99321.13;4361476;32;34108;-87
2022/07/11 02:13:20;;;;;;;;;;;;;;;21.00;37.02;99322.94;4374606;32;33236;-87
2022/07/11 02:15:49;;;;;;;;;;;;;;;20.84;37.15;99310.19;4374853;32;34362;-87
2022/07/11 02:18:17;;;;;;;;;;;;;;;19.83;39.27;99331.06;4374699;32;34171;-87
2022/07/11 02:20:50;;;;;;;;;;;;;;;19.86;39.33;99323.09;4374862;32;34209;-86
2022/07/11 02:23:18;;;;;;;;;;;;;;;20.93;37.17;99313.47;4376918;32;32840;-87
2022/07/11 02:25:46;;;;;;;;;;;;;;;21.11;37.14;99319.12;4376800;32;34025;-87
2022/07/11 02:28:13;;;;;;;;;;;;;;;20.41;38.38;99329.69;4362995;32;33896;-86
2022/07/11 02:30:42;;;;;;;;;;;;;;;20.59;38.24;99320.50;4377204;32;34160;-87
2022/07/11 02:33:15;;;;;;;;;;;;;;;21.05;37.17;99323.69;4376825;32;33327;-86
2022/07/11 02:35:43;;;;;;;;;;;;;;;20.64;37.97;99325.63;4376522;32;34027;-86
2022/07/11 02:38:11;;;;;;;;;;;;;;;20.73;37.92;99328.06;4376654;32;34013;-87
2022/07/11 02:40:38;;;;;;;;;;;;;;;20.90;37.69;99325.81;4363060;32;34968;-86
2022/07/11 02:43:06;;;;;;;;;;;;;;;21.01;37.29;99329.94;4376568;32;34483;-87
2022/07/11 02:45:33;;;;;;;;;;;;;;;19.45;40.52;99340.59;4376709;32;34111;-85
2022/07/11 02:48:01;;;;;;;;;;;;;;;19.44;40.61;99338.87;4363215;32;34595;-87
2022/07/11 02:50:28;;;;;;;;;;;;;;;19.56;40.38;99344.78;4376732;32;35218;-88
2022/07/11 02:52:55;;;;;;;;;;;;;;;19.15;41.30;99349.94;4376434;32;34109;-86
2022/07/11 02:55:22;;;;;;;;;;;;;;;19.29;40.73;99335.69;4376580;32;34184;-87
2022/07/11 02:57:50;;;;;;;;;;;;;;;19.71;40.07;99338.34;4376354;32;34524;-87
2022/07/11 03:00:18;;;;;;;;;;;;;;;19.96;39.52;99339.53;4376441;32;34888;-86
2022/07/11 03:02:45;;;;;;;;;;;;;;;20.35;38.41;99342.16;4376945;32;33094;-87
2022/07/11 03:05:12;;;;;;;;;;;;;;;20.07;39.12;99339.28;4362934;32;34103;-87
2022/07/11 03:07:40;;;;;;;;;;;;;;;19.74;39.64;99339.16;4350912;32;33524;-88
2022/07/11 03:10:07;;;;;;;;;;;;;;;20.22;38.74;99338.94;4350269;32;33310;-88
2022/07/11 03:12:36;;;;;;;;;;;;;;;19.93;39.20;99340.47;4363083;32;34176;-88
2022/07/11 03:15:03;;;;;;;;;;;;;;;19.71;39.71;99333.09;4376160;32;34227;-88
2022/07/11 03:17:30;;;;;;;;;;;;;;;20.48;38.09;99327.75;4363189;32;34933;-89
2022/07/11 03:19:58;;;;;;;;;;;;;;;20.25;38.66;99330.97;4376464;32;33805;-87
2022/07/11 03:22:25;;;;;;;;;;;;;;;20.11;38.44;99333.06;4376297;32;34162;-87
2022/07/11 03:24:52;;;;;;;;;;;;;;;20.56;37.71;99323.19;4376433;32;34894;-86
2022/07/11 03:27:21;;;;;;;;;;;;;;;20.96;36.86;99329.22;4376734;32;34529;-87
2022/07/11 03:29:48;;;;;;;;;;;;;;;20.95;37.21;99327.47;4374400;32;34423;-87
2022/07/11 03:32:15;;;;;;;;;;;;;;;20.41;38.01;99329.69;4376279;32;34408;-86
2022/07/11 03:35:40;;;;;;;;;;;;;;;20.26;38.30;99332.69;4362089;32;34920;-87
2022/07/11 03:37:30;;;;;;;;;;;;;;;19.38;39.91;99336.34;4376226;32;34509;-86
2022/07/11 03:39:58;;;;;;;;;;;;;;;20.88;37.23;99335.56;4376347;32;34232;-87
2022/07/11 03:42:31;;;;;;;;;;;;;;;19.74;39.37;99347.06;4376429;32;33093;-87
2022/07/11 03:44:58;;;;;;;;;;;;;;;20.10;39.10;99352.38;4376248;32;33782;-87
2022/07/11 03:47:26;;;;;;;;;;;;;;;20.86;37.80;99349.66;4376395;32;34218;-87
2022/07/11 03:49:53;;;;;;;;;;;;;;;20.44;38.33;99341.91;4362394;32;34048;-86
2022/07/11 03:52:21;;;;;;;;;;;;;;;21.19;37.19;99342.62;4376369;32;33458;-87
2022/07/11 03:54:48;;;;;;;;;;;;;;;20.98;37.32;99345.84;4362641;32;34040;-88
2022/07/11 03:57:15;;;;;;;;;;;;;;;21.15;37.01;99346.25;4376048;32;35284;-87
2022/07/11 03:59:43;;;;;;;;;;;;;;;20.59;38.01;99349.47;4374465;32;33876;-87
2022/07/11 04:02:10;;;;;;;;;;;;;;;20.65;38.29;99357.22;4362474;32;32664;-87
2022/07/11 04:04:38;;;;;;;;;;;;;;;20.63;38.39;99360.78;4362164;32;34053;-87
2022/07/11 04:07:24;;;;;;;;;;;;;;;21.04;37.44;99349.19;4376409;32;34020;-86
2022/07/11 04:09:51;;;;;;;;;;;;;;;21.09;37.33;99349.06;4375539;32;34033;-87
2022/07/11 04:12:19;;;;;;;;;;;;;;;21.19;37.12;99362.88;4362884;32;34214;-86
2022/07/11 04:14:46;;;;;;;;;;;;;;;21.43;36.66;99361.34;4376242;32;34962;-89
2022/07/11 04:17:13;;;;;;;;;;;;;;;21.89;35.86;99366.13;4375981;32;34254;-87
2022/07/11 04:19:42;;;;;;;;;;;;;;;22.30;35.38;99367.53;4362411;32;34526;-88
2022/07/11 04:22:09;;;;;;;;;;;;;;;22.46;34.98;99362.59;4376215;32;33657;-87
2022/07/11 04:24:37;;;;;;;;;;;;;;;22.87;34.53;99362.16;4376096;32;34299;-88
2022/07/11 04:27:05;;;;;;;;;;;;;;;22.02;35.26;99371.91;4362460;32;32898;-88
2022/07/11 04:29:32;;;;;;;;;;;;;;;22.86;34.01;99373.66;4375956;32;34932;-88
2022/07/11 04:31:59;;;;;;;;;;;;;;;23.00;34.00;99369.66;4362217;32;32575;-89
2022/07/11 04:34:26;;;;;;;;;;;;;;;21.67;36.29;99376.47;4376002;32;33942;-87
2022/07/11 04:36:54;;;;;;;;;;;;;;;21.76;36.44;99370.91;4375664;32;35180;-87
2022/07/11 04:39:21;;;;;;;;;;;;;;;21.55;36.54;99371.53;4375885;32;34152;-86
2022/07/11 04:41:48;;;;;;;;;;;;;;;21.99;35.88;99369.37;4362384;32;34105;-88
2022/07/11 04:44:15;;;;;;;;;;;;;;;22.72;34.77;99369.66;4375357;32;34929;-87
2022/07/11 04:46:43;;;;;;;;;;;;;;;22.32;35.20;99373.63;4374831;32;34409;-87
2022/07/11 04:49:10;;;;;;;;;;;;;;;22.88;34.04;99374.44;4362067;32;34365;-87
2022/07/11 04:51:38;;;;;;;;;;;;;;;23.35;33.70;99379.91;4375531;32;33325;-88
2022/07/11 04:54:05;;;;;;;;;;;;;;;23.69;33.15;99375.13;4362101;32;34058;-92
2022/07/11 04:56:33;;;;;;;;;;;;;;;23.91;32.89;99374.31;4362523;32;33839;-87
2022/07/11 04:59:00;;;;;;;;;;;;;;;24.70;31.21;99376.44;4388908;32;34800;-89
2022/07/11 05:01:28;;;;;;;;;;;;;;;23.88;32.54;99372.62;4387446;32;33506;-88
2022/07/11 05:03:56;;;;;;;;;;;;;;;22.83;34.43;99378.09;4375918;32;34234;-86
2022/07/11 05:06:23;;;;;;;;;;;;;;;23.45;33.28;99375.97;4362231;32;34324;-89
2022/07/11 05:08:51;;;;;;;;;;;;;;;22.79;34.29;99381.75;4375614;32;35193;-91
2022/07/11 05:11:18;;;;;;;;;;;;;;;21.16;37.33;99379.62;4375758;32;33647;-88
2022/07/11 05:13:46;;;;;;;;;;;;;;;21.59;36.61;99387.25;4379480;32;33987;-88
2022/07/11 05:16:13;;;;;;;;;;;;;;;22.15;36.29;99378.56;4388904;32;34316;-86
2022/07/11 05:18:41;;;;;;;;;;;;;;;23.16;35.07;99379.69;4376907;32;34360;-85
2022/07/11 05:21:08;;;;;;;;;;;;;;;22.76;35.00;99376.56;4376867;32;31456;-86
2022/07/11 05:23:35;;;;;;;;;;;;;;;22.73;35.52;99370.53;4376806;32;35150;-88
2022/07/11 05:26:04;;;;;;;;;;;;;;;22.18;35.55;99378.47;4377019;32;34499;-85
2022/07/11 05:28:31;;;;;;;;;;;;;;;23.15;34.26;99373.53;4390452;32;35228;-89
2022/07/11 05:30:59;;;;;;;;;;;;;;;23.45;33.46;99374.22;4390391;32;33079;-85
2022/07/11 05:33:26;;;;;;;;;;;;;;;22.91;34.48;99383.16;4374875;32;33852;-87
2022/07/11 05:35:53;;;;;;;;;;;;;;;21.76;36.87;99386.75;4373372;32;35204;-87
2022/07/11 05:38:21;;;;;;;;;;;;;;;22.18;35.85;99386.41;4370870;32;33396;-88
2022/07/11 05:40:48;;;;;;;;;;;;;;;21.55;36.89;99396.12;4389565;32;34432;-87
2022/07/11 05:43:15;;;;;;;;;;;;;;;22.00;36.36;99394.84;4386126;32;33943;-87
2022/07/11 05:45:43;;;;;;;;;;;;;;;22.37;36.11;99388.47;4375233;32;33971;-87
2022/07/11 05:48:10;;;;;;;;;;;;;;;21.94;36.26;99395.06;4361816;32;33756;-87
2022/07/11 05:50:37;;;;;;;;;;;;;;;22.77;35.26;99388.03;4375131;32;34249;-86
2022/07/11 05:53:07;;;;;;;;;;;;;;;23.26;34.26;99394.28;4370565;32;34218;-87
2022/07/11 05:55:34;;;;;;;;;;;;;;;22.84;34.81;99392.19;4361896;32;33958;-85
2022/07/11 05:58:01;;;;;;;;;;;;;;;22.47;35.54;99400.47;4380538;32;35232;-86
2022/07/11 06:00:29;;;;;;;;;;;;;;;22.27;35.93;99409.00;4363197;32;33432;-85
2022/07/11 06:02:56;;;;;;;;;;;;;;;22.07;36.48;99414.87;4371369;32;35044;-87
2022/07/11 06:05:23;;;;;;;;;;;;;;;23.58;34.11;99403.72;4377036;32;35270;-86
2022/07/11 06:10:38;;;;;;;;;;;;;;;23.92;33.43;99407.81;4388392;32;33411;-85
2022/07/11 06:13:05;;;;;;;;;;;;;;;22.52;35.65;99406.47;4370297;32;34978;-87
2022/07/11 06:15:32;;;;;;;;;;;;;;;22.17;36.23;99418.16;4376313;32;34073;-89
2022/07/11 06:18:00;;;;;;;;;;;;;;;23.13;35.14;99414.16;4364064;32;34389;-86
2022/07/11 06:20:27;;;;;;;;;;;;;;;23.55;34.68;99412.63;4383041;32;34107;-87
2022/07/11 06:22:54;;;;;;;;;;;;;;;24.14;33.43;99419.31;4376836;32;34053;-87
2022/07/11 06:25:22;;;;;;;;;;;;;;;24.21;33.25;99414.66;4376469;32;34511;-85
2022/07/11 06:27:49;;;;;;;;;;;;;;;24.12;32.88;99428.22;4377993;32;33680;-86
2022/07/11 06:30:19;;;;;;;;;;;;;;;24.40;32.96;99430.72;4386171;32;33491;-87
2022/07/11 06:32:46;;;;;;;;;;;;;;;23.43;33.79;99428.09;4376994;32;35111;-87
2022/07/11 06:35:14;;;;;;;;;;;;;;;23.47;34.37;99427.94;4363062;32;34417;-87
2022/07/11 06:37:41;;;;;;;;;;;;;;;23.21;34.27;99427.97;4376632;32;34552;-86
2022/07/11 06:40:11;;;;;;;;;;;;;;;23.28;34.18;99433.00;4376582;32;33861;-87
2022/07/11 06:42:38;;;;;;;;;;;;;;;22.58;35.14;99430.06;4362774;32;33808;-84
2022/07/11 06:45:06;;;;;;;;;;;;;;;24.41;32.32;99421.84;4389766;32;34269;-86
2022/07/11 06:47:34;;;;;;;;;;;;;;;23.58;33.84;99424.03;4376305;32;35323;-87
2022/07/11 06:50:01;;;;;;;;;;;;;;;24.38;32.75;99422.78;4362677;32;32108;-87
2022/07/11 06:52:28;;;;;;;;;;;;;;;23.93;33.36;99426.28;4362761;32;34264;-87
2022/07/11 06:54:57;;;;;;;;;;;;;;;24.74;32.21;99431.06;4389688;32;35321;-87
2022/07/11 06:57:24;;;;;;;;;;;;;;;25.12;31.18;99425.12;4388574;32;35293;-87
2022/07/11 06:59:51;;;;;;;;;;;;;;;24.94;31.55;99421.44;4376500;32;33679;-87
2022/07/11 07:02:19;;;;;;;;;;;;;;;24.49;32.57;99432.97;4376464;32;34945;-87
2022/07/11 07:04:46;;;;;;;;;;;;;;;23.58;33.22;99429.34;4364146;32;34039;-85
2022/07/11 07:07:14;;;;;;;;;;;;;;;24.16;32.92;99428.03;4384904;32;33723;-84
2022/07/11 07:09:41;;;;;;;;;;;;;;;24.25;32.42;99438.31;4383649;32;32384;-89
2022/07/11 07:12:09;;;;;;;;;;;;;;;23.60;34.18;99427.47;4376504;32;33722;-87
2022/07/11 07:14:36;;;;;;;;;;;;;;;24.19;33.55;99435.88;4375945;32;35397;-88
2022/07/11 07:17:03;;;;;;;;;;;;;;;24.01;33.53;99436.56;4379979;32;33621;-87
2022/07/11 07:19:31;;;;;;;;;;;;;;;24.84;32.05;99438.63;4378103;32;33417;-86
2022/07/11 07:21:59;;;;;;;;;;;;;;;23.88;33.99;99437.97;4367733;32;35215;-87
2022/07/11 07:24:26;;;;;;;;;;;;;;;24.08;32.91;99434.56;4376154;32;35136;-86
2022/07/11 07:26:54;;;;;;;;;;;;;;;25.14;31.08;99431.22;4376375;32;34510;-88
2022/07/11 07:29:22;;;;;;;;;;;;;;;24.72;31.12;99440.88;4382218;32;33698;-88
2022/07/11 07:31:49;;;;;;;;;;;;;;;23.43;33.25;99436.03;4391489;32;34616;-88
2022/07/11 07:34:16;;;;;;;;;;;;;;;23.22;33.55;99438.53;4380307;32;34226;-88
2022/07/11 07:36:44;;;;;;;;;;;;;;;23.98;32.87;99441.97;4376393;32;34505;-88
2022/07/11 07:39:11;;;;;;;;;;;;;;;24.66;31.58;99438.50;4370246;32;33615;-87
2022/07/11 07:41:38;;;;;;;;;;;;;;;24.27;32.05;99432.94;4376617;32;34071;-86
2022/07/11 07:44:05;;;;;;;;;;;;;;;25.14;30.66;99429.44;4376497;32;35069;-88
2022/07/11 07:46:33;;;;;;;;;;;;;;;24.51;32.02;99433.81;4388034;32;34254;-87
2022/07/11 07:49:00;;;;;;;;;;;;;;;24.80;31.37;99435.25;4377676;32;33580;-86
2022/07/11 07:51:28;;;;;;;;;;;;;;;24.63;32.15;99428.00;4377887;32;35197;-85
2022/07/11 07:53:55;;;;;;;;;;;;;;;25.45;30.24;99428.09;4391190;32;33809;-87
2022/07/11 07:56:23;;;;;;;;;;;;;;;25.75;29.62;99423.22;4391302;32;33840;-91
2022/07/11 07:58:51;;;;;;;;;;;;;;;24.67;31.06;99429.59;4391390;32;34045;-87
2022/07/11 08:01:40;;;;;;;;;;;;;;;24.14;31.00;99434.34;4390988;32;34368;-86
2022/07/11 08:04:08;;;;;;;;;;;;;;;24.61;31.14;99428.97;4384050;32;34206;-84
2022/07/11 08:06:36;;;;;;;;;;;;;;;24.44;31.51;99416.41;4362152;32;34385;-88
2022/07/11 08:09:04;;;;;;;;;;;;;;;24.66;31.47;99425.22;4376194;32;33680;-88
2022/07/11 08:11:31;;;;;;;;;;;;;;;25.01;30.77;99412.28;4375997;32;35217;-86
2022/07/11 08:13:59;;;;;;;;;;;;;;;24.18;31.19;99420.06;4362484;32;35287;-90
2022/07/11 08:16:30;;;;;;;;;;;;;;;24.02;31.85;99414.50;4376335;32;33822;-86
2022/07/11 08:19:03;;;;;;;;;;;;;;;24.61;31.31;99408.63;4362831;32;34051;-87
2022/07/11 08:21:31;;;;;;;;;;;;;;;24.75;30.42;99408.94;4362643;32;35145;-87
2022/07/11 08:23:59;;;;;;;;;;;;;;;24.72;30.20;99414.34;4376223;32;34338;-89
2022/07/11 08:26:26;;;;;;;;;;;;;;;25.10;30.19;99411.91;4362344;32;35131;-86
2022/07/11 08:29:00;;;;;;;;;;;;;;;24.62;30.74;99410.34;4376258;32;33121;-87
2022/07/11 08:31:28;;;;;;;;;;;;;;;24.39;30.18;99415.72;4362748;32;34969;-86
2022/07/11 08:33:57;;;;;;;;;;;;;;;23.63;31.51;99411.50;4376081;32;34517;-87
2022/07/11 08:36:25;;;;;;;;;;;;;;;24.64;30.99;99415.59;4362907;32;34028;-87
2022/07/11 08:38:52;;;;;;;;;;;;;;;25.19;30.00;99413.31;4375999;32;32003;-87
2022/07/11 08:41:19;;;;;;;;;;;;;;;25.32;30.01;99409.19;4375672;32;34186;-88
2022/07/11 08:43:47;;;;;;;;;;;;;;;25.18;29.00;99406.28;4376035;32;34546;-86
2022/07/11 08:46:14;;;;;;;;;;;;;;;25.07;28.16;99401.41;4362492;32;34027;-87
2022/07/11 08:48:42;;;;;;;;;;;;;;;24.70;29.16;99408.28;4362308;32;33117;-87
2022/07/11 08:51:10;;;;;;;;;;;;;;;25.09;29.56;99396.03;4375332;32;34465;-91
2022/07/11 08:53:38;;;;;;;;;;;;;;;26.17;27.52;99392.97;4361907;32;34878;-86
2022/07/11 08:56:09;;;;;;;;;;;;;;;25.21;28.36;99385.78;4349891;32;33790;-89
2022/07/11 08:58:37;;;;;;;;;;;;;;;25.72;26.70;99395.03;4362730;32;33248;-86
2022/07/11 09:01:05;;;;;;;;;;;;;;;25.16;27.17;99384.28;4361872;32;34952;-86
2022/07/11 09:03:32;;;;;;;;;;;;;;;25.69;26.88;99389.00;4390375;32;34427;-85
2022/07/11 09:06:00;;;;;;;;;;;;;;;26.38;26.07;99383.09;4372077;32;34262;-84
2022/07/11 09:08:29;;;;;;;;;;;;;;;26.77;25.38;99380.28;4362488;32;32987;-84
2022/07/11 09:10:56;;;;;;;;;;;;;;;26.64;24.44;99385.38;4362138;32;34931;-86
2022/07/11 09:13:28;;;;;;;;;;;;;;;26.47;24.96;99380.03;4376060;32;34235;-85
2022/07/11 09:16:00;;;;;;;;;;;;;;;27.01;24.79;99386.19;4361608;32;34486;-88
2022/07/11 09:18:34;;;;;;;;;;;;;;;25.82;26.31;99386.66;4377757;32;33443;-84
2022/07/11 09:26:36;;;;;;;;;;;;;;;25.79;26.07;99371.72;4375776;32;34411;-85
2022/07/11 09:29:04;;;;;;;;;;;;;;;25.64;26.69;99375.91;4375614;32;33080;-86
2022/07/11 09:31:32;;;;;;;;;;;;;;;25.73;25.37;99364.88;4383848;32;34867;-87
2022/07/11 09:34:01;;;;;;;;;;;;;;;27.27;23.60;99366.22;4392502;32;35337;-84
2022/07/11 09:36:41;;;;;;;;;;;;;;;26.14;25.88;99375.37;4391415;32;34241;-87
2022/07/11 09:39:09;;;;;;;;;;;;;;;27.10;23.68;99364.41;4392225;32;33459;-86
2022/07/11 09:41:37;;;;;;;;;;;;;;;26.62;22.43;99373.94;4392636;32;33873;-85
2022/07/11 09:44:11;;;;;;;;;;;;;;;26.88;23.68;99366.47;4392590;32;34960;-84
2022/07/11 09:46:39;;;;;;;;;;;;;;;26.87;22.64;99372.72;4378733;32;35015;-85
2022/07/11 09:49:07;;;;;;;;;;;;;;;25.62;25.30;99372.47;4366595;32;33297;-85
2022/07/11 09:51:35;;;;;;;;;;;;;;;25.93;25.11;99361.31;4377587;32;34310;-87
2022/07/11 09:54:04;;;;;;;;;;;;;;;26.49;24.90;99367.53;4376883;32;34318;-85
2022/07/11 09:56:32;;;;;;;;;;;;;;;25.81;25.14;99371.66;4377210;32;34974;-87
2022/07/11 09:59:22;;;;;;;;;;;;;;;25.03;25.82;99369.78;4365913;32;33480;-87
2022/07/11 10:01:49;;;;;;;;;;;;;;;26.40;24.33;99365.28;4377236;32;34333;-84
2022/07/11 10:04:17;;;;;;;;;;;;;;;26.86;22.81;99352.41;4377332;32;34395;-85
2022/07/11 10:06:45;;;;;;;;;;;;;;;26.44;24.72;99358.88;4376778;32;35327;-86
2022/07/11 10:09:12;;;;;;;;;;;;;;;26.27;24.48;99356.19;4377455;32;34443;-86
2022/07/11 10:11:39;;;;;;;;;;;;;;;25.59;24.38;99356.66;4362667;32;32681;-88
2022/07/11 10:14:07;;;;;;;;;;;;;;;25.37;24.97;99351.47;4378054;32;34041;-86
2022/07/11 10:16:35;;;;;;;;;;;;;;;25.92;24.49;99353.44;4385947;32;34333;-86
2022/07/11 10:19:08;;;;;;;;;;;;;;;26.49;23.81;99348.06;4377109;32;33319;-87
2022/07/11 10:21:44;;;;;;;;;;;;;;;26.72;23.96;99344.25;4376960;32;34179;-86
2022/07/11 10:24:24;;;;;;;;;;;;;;;27.53;22.65;99356.84;4377226;32;34527;-85
2022/07/11 10:26:58;;;;;;;;;;;;;;;26.43;23.60;99357.16;4376934;32;34159;-84
2022/07/11 10:29:46;;;;;;;;;;;;;;;26.79;23.15;99356.31;4348585;32;32974;-86
2022/07/11 10:32:13;;;;;;;;;;;;;;;25.64;23.78;99359.97;4370589;32;34650;-87
2022/07/11 10:34:43;;;;;;;;;;;;;;;26.25;22.60;99352.72;4379102;32;34364;-85
2022/07/11 10:37:11;;;;;;;;;;;;;;;26.01;23.09;99352.13;4348172;32;34084;-85
2022/07/11 10:39:46;;;;;;;;;;;;;;;26.86;22.96;99349.72;4361967;32;33044;-88
2022/07/11 10:42:19;;;;;;;;;;;;;;;27.49;21.83;99341.12;4348022;32;34226;-86
2022/07/11 10:44:49;;;;;;;;;;;;;;;27.66;21.51;99346.41;4361831;32;34288;-85
2022/07/11 10:47:40;;;;;;;;;;;;;;;26.97;22.46;99339.38;4360610;32;34814;-85
2022/07/11 10:50:18;;;;;;;;;;;;;;;27.28;22.21;99337.81;4347853;32;32029;-86
2022/07/11 10:52:46;;;;;;;;;;;;;;;27.17;22.80;99328.59;4361738;32;34182;-86
2022/07/11 10:55:31;;;;;;;;;;;;;;;27.69;21.92;99322.25;4347938;32;34631;-85
2022/07/11 10:58:03;;;;;;;;;;;;;;;27.09;22.30;99317.47;4360465;32;34373;-85
2022/07/11 11:00:31;;;;;;;;;;;;;;;25.63;23.79;99326.38;4360827;32;33294;-87
2022/07/11 11:03:03;;;;;;;;;;;;;;;25.51;24.22;99332.28;4361752;32;35080;-86
2022/07/11 11:05:41;;;;;;;;;;;;;;;25.93;24.31;99328.56;4361709;32;34925;-87
2022/07/11 11:08:27;;;;;;;;;;;;;;;25.94;24.35;99331.16;4361740;32;33931;-87
2022/07/11 11:10:55;;;;;;;;;;;;;;;26.20;24.35;99332.56;4361543;32;34286;-85
2022/07/11 11:13:23;;;;;;;;;;;;;;;25.93;24.54;99328.56;4361667;32;34175;-85
2022/07/11 11:15:51;;;;;;;;;;;;;;;25.88;24.46;99333.25;4361591;32;34140;-85
2022/07/11 11:18:25;;;;;;;;;;;;;;;26.21;24.43;99328.09;4361518;32;34922;-85
2022/07/11 11:21:02;;;;;;;;;;;;;;;26.40;24.78;99320.06;4361522;32;33294;-86
2022/07/11 11:23:33;;;;;;;;;;;;;;;27.38;23.40;99323.06;4347846;32;32133;-86
2022/07/11 11:26:04;;;;;;;;;;;;;;;26.80;23.56;99326.09;4360359;32;34336;-89
2022/07/11 11:28:31;;;;;;;;;;;;;;;26.10;24.03;99315.34;4361856;32;34237;-85
2022/07/11 11:31:00;;;;;;;;;;;;;;;26.07;23.70;99325.28;4360066;32;34112;-91
2022/07/11 11:33:28;;;;;;;;;;;;;;;26.89;23.52;99313.16;4361640;32;35056;-86
2022/07/11 11:36:00;;;;;;;;;;;;;;;27.26;21.78;99326.38;4360243;32;34238;-85
2022/07/11 11:38:28;;;;;;;;;;;;;;;27.15;23.21;99342.91;4361544;32;34107;-85
2022/07/11 11:40:55;;;;;;;;;;;;;;;26.83;22.39;99342.75;4361415;32;34378;-88
2022/07/11 11:43:28;;;;;;;;;;;;;;;26.80;23.55;99344.72;4361334;32;35031;-86
2022/07/11 11:45:55;;;;;;;;;;;;;;;26.30;23.42;99348.06;4361452;32;35356;-86
2022/07/11 11:48:45;;;;;;;;;;;;;;;26.11;23.58;99332.16;4361264;32;35206;-85
2022/07/11 11:51:14;;;;;;;;;;;;;;;26.62;22.82;99333.19;4361856;32;33108;-87
2022/07/11 11:53:41;;;;;;;;;;;;;;;26.59;23.31;99339.53;4360823;32;35120;-86
2022/07/11 11:56:28;;;;;;;;;;;;;;;26.93;22.23;99337.81;4361507;32;34424;-87
2022/07/11 11:58:57;;;;;;;;;;;;;;;26.52;22.90;99340.78;4360290;32;34247;-87
2022/07/11 12:01:32;;;;;;;;;;;;;;;26.23;23.83;99347.50;4360186;32;33232;-87
2022/07/11 12:04:00;;;;;;;;;;;;;;;26.64;24.19;99342.84;4361024;32;34859;-84
2022/07/11 12:06:29;;;;;;;;;;;;;;;27.03;22.70;99341.72;4347929;32;34242;-85
2022/07/11 12:09:00;;;;;;;;;;;;;;;26.51;23.77;99339.03;4360196;32;33786;-86
2022/07/11 12:11:28;;;;;;;;;;;;;;;26.89;23.32;99334.44;4361541;32;33449;-86
2022/07/11 12:14:14;;;;;;;;;;;;;;;26.75;23.03;99341.44;4359972;32;34038;-81
2022/07/11 12:16:42;;;;;;;;;;;;;;;26.83;22.35;99336.59;4361401;32;34313;-86
2022/07/11 12:19:19;;;;;;;;;;;;;;;26.35;22.71;99341.56;4361167;32;34937;-89
2022/07/11 12:21:48;;;;;;;;;;;;;;;26.30;23.87;99334.78;4361315;32;34216;-86
2022/07/11 12:24:16;;;;;;;;;;;;;;;26.75;24.45;99333.47;4361151;32;34226;-86
2022/07/11 12:26:43;;;;;;;;;;;;;;;27.28;23.52;99329.84;4360098;32;34372;-90
2022/07/11 12:29:11;;;;;;;;;;;;;;;27.07;22.77;99329.97;4359804;32;34161;-85
2022/07/11 12:31:42;;;;;;;;;;;;;;;26.94;23.42;99323.59;4361107;32;32839;-87
2022/07/11 12:34:10;;;;;;;;;;;;;;;26.41;22.51;99320.03;4361580;32;33731;-85
2022/07/11 12:36:37;;;;;;;;;;;;;;;26.67;22.61;99326.72;4360197;32;34334;-85
2022/07/11 12:39:05;;;;;;;;;;;;;;;26.91;22.71;99332.56;4361290;32;34504;-87
2022/07/11 12:41:32;;;;;;;;;;;;;;;26.80;21.94;99323.44;4361165;32;34523;-85
2022/07/11 12:46:49;;;;;;;;;;;;;;;26.62;22.72;99328.72;4361206;32;33859;-84
2022/07/11 12:49:17;;;;;;;;;;;;;;;27.01;22.38;99337.41;4360930;32;34795;-89
2022/07/11 12:51:45;;;;;;;;;;;;;;;27.15;22.05;99326.94;4359608;32;31928;-89
2022/07/11 12:54:13;;;;;;;;;;;;;;;26.97;22.79;99330.53;4347678;32;34131;-84
2022/07/11 12:56:50;;;;;;;;;;;;;;;26.42;23.08;99336.81;4361059;32;33959;-87
2022/07/11 12:59:19;;;;;;;;;;;;;;;26.37;23.21;99326.44;4359521;32;34806;-85
2022/07/11 13:02:00;;;;;;;;;;;;;;;27.05;23.84;99325.66;4360737;32;33598;-87
2022/07/11 13:04:28;;;;;;;;;;;;;;;26.19;24.11;99325.53;4359309;32;34875;-86
2022/07/11 13:09:42;;;;;;;;;;;;;;;26.49;24.15;99317.00;4360580;32;34264;-86
2022/07/11 13:12:09;;;;;;;;;;;;;;;26.64;24.12;99316.25;4360943;32;32889;-86